Terminal Aerodrome Forecast
Issued by NWS

Current Version | Previous Version | Text Only | Print | Product List | Glossary Off
Versions: 1 2 3 4 5 6 7 8 9 10 11 12 13 14 15 16 17 18 19 20 21 22 23 24 25 26 27

000
FTUS41 KRLX 180251 AAA
TAFCKB
TAF AMD
KCKB 180251Z 1803/1824 VRB03KT P6SM SCT200
     FM181000 17004KT P6SM BKN070
     FM181400 19007G15KT 5SM SHRA OVC035
     FM181800 21010G20KT P6SM VCSH OVC045=

USA.gov is the U.S. government's official web portal to all federal, state and local government web resources and services.